Hovedside
METAR-TAF:

METAR-TAF

Lufthavner :

Odense, Danmark

Hans Christian Andersen Airport

breddegrad: 55-29N, lengdegrad: 010-20E, høyde over havet: 17 m

Gjeldene værobservasjon

Denne rapporten ble laget for 1 time og 52 minutter siden, klokken 20:50 UTC
Vind 3 kt fra Nord
Temperatur 15°C
Luftfuktighet 94%
Trykk 1010 hPa
Sikt 10 km eller mer
Spredte skyer i en høyde av 1000 ft
Brutte skyer i en høyde av 15000 ft

METAR: EKOD 242050Z 35003KT 9999 SCT010 BKN150 15/14 Q1010

Tid: 00:42 (22:42 UTC)

Varsel

Denne rapporten ble laget for 10 timer og 50 minutter siden, klokken 11:52 UTC
Varsel gyldig fra 24. klokken 12 UTC til 24. klokken 18 UTC
Vind 6 kt fra Nordøst
Sikt 10 km eller mer
Spredte skyer i en høyde av 2500 ft
Midlertidig
fra 24. klokken 12 UTC til 24. klokken 18 UTC
Brutte skyer i en høyde av 1200 ft
Spredte skyer i en høyde av 2000 ft, Bygeskyer.
regnbyger

TAF: EKOD 241152Z 2412/2418 04006KT 9999 SCT025 TEMPO 2412/2418 SHRA BKN012 SCT020CB

Værobservasjoner og værvarsel for over 4000 flyplasser (METAR- og TAF-rapporter).

Tilgjengelige stasjoner er representert av de røde og gule prikkene på kartet.

Hold musepekeren over prikken for å se navnet på stasjonen.

Klikk så for å se værobservasjoner og -varsler.

For å forandre kartet kan du klikke på den grønne knappen med svart kryss for å zoome inn, på den grønne knappen med strek for å zoome ut, eller på de grønne pilene for å se tilstøtende kart.


METAR-TAF: